createdAt,value
2022-12-14T00:01:54.233Z,-5.00
2022-12-14T00:04:22.053Z,-5.00
2022-12-14T00:06:49.892Z,-5.00
2022-12-14T00:09:17.717Z,-5.00
2022-12-14T00:11:45.838Z,-5.00
2022-12-14T00:14:13.682Z,-5.10
2022-12-14T00:16:42.813Z,-5.10
2022-12-14T00:19:12.233Z,-5.20
2022-12-14T00:21:40.069Z,-5.10
2022-12-14T00:24:08.078Z,-5.10
2022-12-14T00:26:35.873Z,-5.10
2022-12-14T00:29:04.262Z,-5.10
2022-12-14T00:31:32.700Z,-5.10
2022-12-14T00:34:02.085Z,-5.10
2022-12-14T00:36:31.617Z,-5.10
2022-12-14T00:39:00.413Z,-5.00
2022-12-14T00:41:28.236Z,-5.00
2022-12-14T00:43:56.124Z,-5.00
2022-12-14T00:46:23.993Z,-5.00
2022-12-14T00:48:51.807Z,-5.00
2022-12-14T00:51:20.957Z,-5.00
2022-12-14T00:53:48.731Z,-5.00
2022-12-14T00:56:16.498Z,-5.00
2022-12-14T00:58:44.313Z,-4.90
2022-12-14T01:01:13.775Z,-4.90
2022-12-14T01:03:41.959Z,-4.90
2022-12-14T01:06:14.979Z,-5.00
2022-12-14T01:08:44.234Z,-5.00
2022-12-14T01:11:12.718Z,-5.00
2022-12-14T01:13:41.801Z,-4.90
2022-12-14T01:16:12.349Z,-4.90
2022-12-14T01:18:41.633Z,-4.90
2022-12-14T01:21:14.811Z,-4.90
2022-12-14T01:23:44.791Z,-4.80
2022-12-14T01:26:13.578Z,-4.80
2022-12-14T01:28:42.290Z,-4.80
2022-12-14T01:31:12.885Z,-4.80
2022-12-14T01:33:41.002Z,-4.80
2022-12-14T01:36:11.234Z,-4.80
2022-12-14T01:38:39.331Z,-4.80
2022-12-14T01:41:10.124Z,-4.80
2022-12-14T01:43:49.066Z,-4.80
2022-12-14T01:46:19.466Z,-4.70
2022-12-14T01:48:49.164Z,-4.80
2022-12-14T01:51:16.987Z,-4.80
2022-12-14T01:53:44.941Z,-4.80
2022-12-14T01:56:14.323Z,-4.70
2022-12-14T01:58:42.299Z,-4.70
2022-12-14T02:01:11.483Z,-4.70
2022-12-14T02:03:44.082Z,-4.60
2022-12-14T02:06:15.437Z,-4.60
2022-12-14T02:08:47.782Z,-4.60
2022-12-14T02:11:20.751Z,-4.60
2022-12-14T02:13:48.807Z,-4.70
2022-12-14T02:16:16.864Z,-4.60
2022-12-14T02:18:44.751Z,-4.60
2022-12-14T02:21:23.592Z,-4.70
2022-12-14T02:24:20.662Z,-4.70
2022-12-14T02:27:05.286Z,-4.70
2022-12-14T02:29:58.177Z,-4.60
2022-12-14T02:32:39.721Z,-4.60
2022-12-14T02:35:15.861Z,-4.60
2022-12-14T02:37:49.910Z,-4.50
2022-12-14T02:40:27.506Z,-4.60
2022-12-14T02:43:05.242Z,-4.60
2022-12-14T02:45:41.181Z,-4.60
2022-12-14T02:48:17.142Z,-4.60
2022-12-14T02:50:52.534Z,-4.60
2022-12-14T02:53:27.253Z,-4.60
2022-12-14T02:55:59.908Z,-4.60
2022-12-14T02:58:31.813Z,-4.60
2022-12-14T03:01:01.507Z,-4.50
2022-12-14T03:03:29.548Z,-4.50
2022-12-14T03:05:59.417Z,-4.50
2022-12-14T03:08:29.080Z,-4.50
2022-12-14T03:11:00.768Z,-4.50
2022-12-14T03:13:32.868Z,-4.40
2022-12-14T03:16:08.849Z,-4.40
2022-12-14T03:18:40.061Z,-4.40
2022-12-14T03:21:11.026Z,-4.30
2022-12-14T03:23:42.247Z,-4.30
2022-12-14T03:26:15.813Z,-4.30
2022-12-14T03:28:48.395Z,-4.30
2022-12-14T03:31:22.393Z,-4.30
2022-12-14T03:33:54.894Z,-4.20
2022-12-14T03:36:38.278Z,-4.10
2022-12-14T03:39:08.966Z,-4.10
2022-12-14T03:41:51.089Z,-4.10
2022-12-14T03:44:30.760Z,-4.10
2022-12-14T03:47:10.772Z,-4.10
2022-12-14T03:49:51.635Z,-4.10
2022-12-14T03:52:26.294Z,-4.10
2022-12-14T03:55:06.776Z,-4.00
2022-12-14T03:57:48.217Z,-4.00
2022-12-14T04:00:19.964Z,-4.00
2022-12-14T04:02:54.858Z,-4.00
2022-12-14T04:05:31.039Z,-4.00
2022-12-14T04:08:06.318Z,-4.00
2022-12-14T04:10:59.196Z,-3.90
2022-12-14T04:13:49.211Z,-4.00
2022-12-14T04:16:38.787Z,-4.00
2022-12-14T04:19:13.500Z,-4.10
2022-12-14T04:21:48.234Z,-4.10
2022-12-14T04:24:40.732Z,-4.10
2022-12-14T04:27:14.490Z,-4.10
2022-12-14T04:30:00.769Z,-4.10
2022-12-14T04:32:34.831Z,-4.10
2022-12-14T04:35:10.676Z,-4.00
2022-12-14T04:37:40.860Z,-3.90
2022-12-14T04:40:11.736Z,-4.00
2022-12-14T04:42:45.252Z,-3.90
2022-12-14T04:45:17.915Z,-3.90
2022-12-14T04:47:53.282Z,-3.80
2022-12-14T04:50:27.813Z,-3.80
2022-12-14T04:53:00.046Z,-3.80
2022-12-14T04:55:34.356Z,-3.80
2022-12-14T04:58:07.649Z,-3.90
2022-12-14T05:00:39.228Z,-3.90
2022-12-14T05:03:20.908Z,-3.80
2022-12-14T05:06:07.459Z,-3.80
2022-12-14T05:08:52.248Z,-3.80
2022-12-14T05:11:52.678Z,-3.70
2022-12-14T05:14:22.022Z,-3.70
2022-12-14T05:16:50.969Z,-3.70
2022-12-14T05:19:18.985Z,-3.60
2022-12-14T05:21:48.275Z,-3.60
2022-12-14T05:24:17.118Z,-3.60
2022-12-14T05:26:46.411Z,-3.50
2022-12-14T05:29:15.168Z,-3.50
2022-12-14T05:31:49.149Z,-3.50
2022-12-14T05:34:18.135Z,-3.40
2022-12-14T05:36:46.143Z,-3.40
2022-12-14T05:39:15.931Z,-3.50
2022-12-14T05:41:44.301Z,-3.50
2022-12-14T05:44:12.466Z,-3.50
2022-12-14T05:46:40.388Z,-3.50
2022-12-14T05:49:08.281Z,-3.40
2022-12-14T05:51:36.293Z,-3.40
2022-12-14T05:54:04.240Z,-3.40
2022-12-14T05:56:33.936Z,-3.30
2022-12-14T05:59:02.560Z,-3.40
2022-12-14T06:01:30.473Z,-3.40
2022-12-14T06:03:58.406Z,-3.40
2022-12-14T06:06:26.293Z,-3.40
2022-12-14T06:08:54.168Z,-3.30
2022-12-14T06:11:24.229Z,-3.30
2022-12-14T06:13:53.559Z,-3.30
2022-12-14T06:16:23.885Z,-3.30
2022-12-14T06:18:53.472Z,-3.20
2022-12-14T06:21:23.652Z,-3.20
2022-12-14T06:23:51.488Z,-3.10
2022-12-14T06:26:25.378Z,-3.10
2022-12-14T06:28:56.124Z,-3.00
2022-12-14T06:31:26.305Z,-3.00
2022-12-14T06:33:56.472Z,-3.00
2022-12-14T06:36:26.799Z,-3.00
2022-12-14T06:38:55.705Z,-2.90
2022-12-14T06:41:25.087Z,-2.90
2022-12-14T06:43:54.641Z,-2.90
2022-12-14T06:46:28.218Z,-2.90
2022-12-14T06:48:56.933Z,-2.90
2022-12-14T06:51:25.954Z,-2.80
2022-12-14T06:53:54.851Z,-2.80
2022-12-14T06:56:24.431Z,-2.80
2022-12-14T06:58:54.312Z,-2.90
2022-12-14T07:01:23.475Z,-2.90
2022-12-14T07:03:53.397Z,-3.00
2022-12-14T07:06:21.664Z,-2.90
2022-12-14T07:08:49.855Z,-2.90
2022-12-14T07:11:18.217Z,-2.90
2022-12-14T07:13:46.104Z,-2.80
2022-12-14T07:16:20.113Z,-2.80
2022-12-14T07:18:48.940Z,-2.80
2022-12-14T07:21:18.452Z,-2.80
2022-12-14T07:23:48.651Z,-2.80
2022-12-14T07:26:18.318Z,-2.80
2022-12-14T07:28:46.879Z,-2.80
2022-12-14T07:31:16.555Z,-2.80
2022-12-14T07:33:46.128Z,-2.70
2022-12-14T07:36:15.796Z,-2.70
2022-12-14T07:38:45.488Z,-2.60
2022-12-14T07:41:20.376Z,-2.50
2022-12-14T07:43:50.340Z,-2.50
2022-12-14T07:46:20.636Z,-2.30
2022-12-14T07:48:51.522Z,-2.20
2022-12-14T07:51:21.852Z,-2.10
2022-12-14T07:53:51.129Z,-2.10
2022-12-14T07:56:22.189Z,-2.00
2022-12-14T07:58:50.358Z,-2.00
2022-12-14T08:01:21.093Z,-1.90
2022-12-14T08:03:52.496Z,-1.80
2022-12-14T08:06:22.408Z,-1.90
2022-12-14T08:08:51.001Z,-1.80
2022-12-14T08:11:20.021Z,-1.70
2022-12-14T08:13:48.343Z,-1.60
2022-12-14T08:16:17.866Z,-1.50
2022-12-14T08:18:45.923Z,-1.50
2022-12-14T08:21:15.770Z,-1.70
2022-12-14T08:23:43.699Z,-1.70
2022-12-14T08:26:11.726Z,-1.70
2022-12-14T08:28:39.601Z,-1.70
2022-12-14T08:31:09.351Z,-1.70
2022-12-14T08:33:38.997Z,-1.80
2022-12-14T08:36:09.614Z,-1.70
2022-12-14T08:38:39.140Z,-1.70
2022-12-14T08:41:08.715Z,-1.60
2022-12-14T08:43:37.124Z,-1.60
2022-12-14T08:46:05.532Z,-1.60
2022-12-14T08:48:33.707Z,-1.60
2022-12-14T08:51:05.352Z,-1.60
2022-12-14T08:53:33.595Z,-1.70
2022-12-14T08:56:08.214Z,-1.70
2022-12-14T08:58:36.600Z,-1.50
2022-12-14T09:01:06.272Z,-1.40
2022-12-14T09:03:34.594Z,-1.40
2022-12-14T09:06:04.355Z,-1.40
2022-12-14T09:08:32.807Z,-1.30
2022-12-14T09:11:01.355Z,-1.20
2022-12-14T09:13:31.502Z,-1.00
2022-12-14T09:16:00.420Z,-1.00
2022-12-14T09:18:29.218Z,-0.80
2022-12-14T09:20:58.513Z,-0.80
2022-12-14T09:23:28.252Z,-0.80
2022-12-14T09:26:00.827Z,-0.60
2022-12-14T09:28:31.158Z,-0.50
2022-12-14T09:31:00.579Z,-0.40
2022-12-14T09:33:30.380Z,-0.30
2022-12-14T09:36:02.724Z,-0.30
2022-12-14T09:38:32.344Z,-0.20
2022-12-14T09:41:04.887Z,-0.10
2022-12-14T09:43:41.374Z,-0.30
2022-12-14T09:46:26.335Z,-0.40
2022-12-14T09:48:57.151Z,-0.50
2022-12-14T09:51:31.970Z,-0.40
2022-12-14T09:54:04.654Z,-0.50
2022-12-14T09:56:34.157Z,-0.50
2022-12-14T09:59:04.423Z,-0.60
2022-12-14T10:02:30.183Z,-0.60
2022-12-14T10:04:58.495Z,-0.60
2022-12-14T10:07:34.844Z,-0.70
2022-12-14T10:10:11.739Z,-0.80
2022-12-14T10:12:51.468Z,-0.80
2022-12-14T10:15:28.954Z,-0.80
2022-12-14T10:18:33.768Z,-0.50
2022-12-14T10:21:06.397Z,-0.20
2022-12-14T10:23:35.523Z,0.10
2022-12-14T10:26:08.906Z,0.30
2022-12-14T10:28:46.710Z,0.40
2022-12-14T10:31:27.359Z,0.40
2022-12-14T10:34:05.554Z,0.30
2022-12-14T10:36:44.784Z,0.20
2022-12-14T10:39:28.096Z,0.10
2022-12-14T10:42:01.343Z,0.30
2022-12-14T10:44:41.385Z,0.50
2022-12-14T10:47:19.347Z,0.50
2022-12-14T10:49:56.348Z,0.50
2022-12-14T10:52:28.811Z,0.50
2022-12-14T10:55:01.656Z,0.20
2022-12-14T10:57:30.839Z,0.20
2022-12-14T11:00:09.528Z,0.20
2022-12-14T11:02:42.387Z,0.20
2022-12-14T11:05:24.824Z,0.40
2022-12-14T11:07:52.790Z,0.50
2022-12-14T11:10:23.723Z,0.60
2022-12-14T11:13:00.444Z,0.70
2022-12-14T11:15:31.823Z,0.70
2022-12-14T11:18:07.843Z,0.70
2022-12-14T11:20:35.762Z,0.80
2022-12-14T11:23:09.416Z,0.90
2022-12-14T11:25:40.612Z,1.10
2022-12-14T11:28:35.933Z,1.20
2022-12-14T11:31:07.232Z,1.30
2022-12-14T11:33:42.184Z,1.20
2022-12-14T11:36:10.986Z,1.00
2022-12-14T11:38:38.866Z,1.00
2022-12-14T11:41:11.507Z,1.00
2022-12-14T11:43:40.362Z,1.00
2022-12-14T11:46:08.625Z,1.00
2022-12-14T11:48:39.265Z,1.10
2022-12-14T11:51:11.973Z,1.20
2022-12-14T11:53:40.171Z,1.20
2022-12-14T11:56:11.631Z,1.30
2022-12-14T11:58:47.452Z,1.30
2022-12-14T12:01:18.002Z,1.40
2022-12-14T12:03:49.666Z,1.40
2022-12-14T12:06:22.871Z,1.40
2022-12-14T12:08:56.124Z,1.20
2022-12-14T12:11:28.388Z,1.10
2022-12-14T12:14:01.583Z,1.10
2022-12-14T12:16:32.707Z,1.10
2022-12-14T12:19:12.129Z,1.10
2022-12-14T12:21:42.393Z,1.00
2022-12-14T12:24:17.302Z,0.90
2022-12-14T12:26:50.420Z,0.90
2022-12-14T12:29:25.267Z,0.80
2022-12-14T12:31:58.653Z,0.70
2022-12-14T12:34:32.463Z,0.70
2022-12-14T12:39:58.121Z,0.70
2022-12-14T12:42:33.273Z,0.80
2022-12-14T12:45:06.409Z,0.80
2022-12-14T12:47:47.322Z,0.70
2022-12-14T12:50:19.361Z,0.70
2022-12-14T12:53:02.320Z,0.70
2022-12-14T12:55:34.149Z,0.80
2022-12-14T12:58:04.898Z,0.80
2022-12-14T13:00:33.728Z,0.70
2022-12-14T13:03:09.249Z,0.70
2022-12-14T13:05:46.584Z,0.60
2022-12-14T13:08:24.386Z,0.50
2022-12-14T13:11:25.560Z,0.50
2022-12-14T13:13:46.482Z,0.50
2022-12-14T13:16:24.680Z,0.50
2022-12-14T13:19:19.092Z,0.50
2022-12-14T13:21:54.528Z,0.50
2022-12-14T13:24:23.710Z,0.40
2022-12-14T13:27:33.117Z,0.30
2022-12-14T13:30:15.847Z,0.30
2022-12-14T13:32:56.306Z,0.30
2022-12-14T13:35:42.520Z,0.20
2022-12-14T13:38:42.176Z,0.20
2022-12-14T13:41:20.412Z,0.20
2022-12-14T13:44:17.380Z,0.30
2022-12-14T13:46:45.365Z,0.30
2022-12-14T13:49:21.410Z,0.40
2022-12-14T13:51:51.708Z,0.50
2022-12-14T13:54:27.766Z,0.70
2022-12-14T13:57:04.844Z,0.70
2022-12-14T13:59:36.005Z,0.80
2022-12-14T14:02:05.576Z,0.80
2022-12-14T14:04:35.551Z,0.90
2022-12-14T14:07:39.246Z,0.90
2022-12-14T14:10:30.782Z,0.80
2022-12-14T14:12:58.912Z,0.70
2022-12-14T14:15:38.198Z,0.60
2022-12-14T14:18:14.659Z,0.60
2022-12-14T14:20:44.014Z,0.60
2022-12-14T14:23:31.204Z,0.60
2022-12-14T14:26:22.369Z,0.60
2022-12-14T14:29:32.785Z,0.50
2022-12-14T14:32:02.135Z,0.50
2022-12-14T14:34:41.662Z,0.50
2022-12-14T14:37:35.321Z,0.50
2022-12-14T14:40:38.341Z,0.60
2022-12-14T14:43:26.131Z,0.60
2022-12-14T14:45:56.241Z,0.60
2022-12-14T14:48:33.614Z,0.60
2022-12-14T14:51:09.226Z,0.60
2022-12-14T14:53:38.530Z,0.60
2022-12-14T14:56:29.121Z,0.60
2022-12-14T14:59:31.862Z,0.60
2022-12-14T15:02:04.000Z,0.60
2022-12-14T15:04:44.855Z,0.70
2022-12-14T15:07:16.589Z,0.70
2022-12-14T15:09:48.183Z,0.60
2022-12-14T15:12:30.682Z,0.60
2022-12-14T15:15:02.480Z,0.60
2022-12-14T15:17:31.657Z,0.60
2022-12-14T15:20:01.162Z,0.60
2022-12-14T15:22:31.574Z,0.60
2022-12-14T15:25:01.937Z,0.60
2022-12-14T15:27:33.090Z,0.60
2022-12-14T15:30:05.645Z,0.50
2022-12-14T15:32:35.021Z,0.50
2022-12-14T15:35:06.432Z,0.50
2022-12-14T15:37:42.258Z,0.50
2022-12-14T15:40:14.298Z,0.60
2022-12-14T15:42:47.923Z,0.60
2022-12-14T15:45:18.720Z,0.60
2022-12-14T15:47:49.240Z,0.60
2022-12-14T15:50:21.790Z,0.60
2022-12-14T15:52:50.800Z,0.50
2022-12-14T15:55:28.822Z,0.60
2022-12-14T15:57:56.867Z,0.50
2022-12-14T16:00:24.919Z,0.60
2022-12-14T16:02:54.517Z,0.60
2022-12-14T16:05:23.628Z,0.60
2022-12-14T16:07:56.239Z,0.70
2022-12-14T16:10:27.191Z,0.70
2022-12-14T16:12:58.456Z,0.70
2022-12-14T16:15:28.703Z,0.70
2022-12-14T16:18:02.477Z,0.70
2022-12-14T16:20:32.776Z,0.70
2022-12-14T16:23:05.161Z,0.60
2022-12-14T16:25:35.536Z,0.60
2022-12-14T16:28:21.500Z,0.60
2022-12-14T16:30:55.553Z,0.60
2022-12-14T16:33:26.217Z,0.60
2022-12-14T16:36:03.242Z,0.60
2022-12-14T16:38:32.468Z,0.60
2022-12-14T16:41:02.623Z,0.60
2022-12-14T16:43:34.880Z,0.60
2022-12-14T16:46:15.199Z,0.50
2022-12-14T16:49:03.678Z,0.50
2022-12-14T16:54:31.160Z,0.50
2022-12-14T16:57:02.168Z,0.50
2022-12-14T16:59:38.111Z,0.50
2022-12-14T17:02:09.403Z,0.40
2022-12-14T17:04:44.741Z,0.40
2022-12-14T17:07:15.670Z,0.40
2022-12-14T17:09:43.553Z,0.40
2022-12-14T17:12:15.922Z,0.40
2022-12-14T17:14:50.002Z,0.30
2022-12-14T17:17:23.011Z,0.40
2022-12-14T17:19:52.234Z,0.40
2022-12-14T17:22:24.086Z,0.40
2022-12-14T17:24:52.104Z,0.30
2022-12-14T17:27:22.044Z,0.30
2022-12-14T17:29:50.384Z,0.30
2022-12-14T17:32:18.934Z,0.30
2022-12-14T17:34:47.620Z,0.30
2022-12-14T17:37:19.429Z,0.30
2022-12-14T17:39:47.294Z,0.30
2022-12-14T17:42:16.995Z,0.30
2022-12-14T17:44:49.502Z,0.30
2022-12-14T17:47:17.362Z,0.20
2022-12-14T17:49:45.271Z,0.20
2022-12-14T17:52:20.797Z,0.20
2022-12-14T17:54:48.982Z,0.20
2022-12-14T17:57:20.156Z,0.20
2022-12-14T17:59:48.830Z,0.20
2022-12-14T18:02:27.416Z,0.20
2022-12-14T18:04:55.497Z,0.20
2022-12-14T18:07:24.708Z,0.20
2022-12-14T18:09:54.424Z,0.10
2022-12-14T18:12:24.139Z,0.10
2022-12-14T18:14:52.425Z,0.10
2022-12-14T18:17:20.381Z,0.10
2022-12-14T18:19:49.526Z,0.10
2022-12-14T18:22:18.055Z,0.00
2022-12-14T18:24:49.505Z,0.00
2022-12-14T18:27:17.403Z,0.00
2022-12-14T18:29:45.299Z,0.00
2022-12-14T18:32:14.712Z,0.00
2022-12-14T18:34:42.562Z,0.00
2022-12-14T18:37:10.559Z,0.00
2022-12-14T18:39:38.384Z,0.00
2022-12-14T18:42:08.631Z,0.00
2022-12-14T18:44:37.966Z,0.00
2022-12-14T18:47:33.686Z,0.00
2022-12-14T18:49:53.695Z,0.00
2022-12-14T18:52:21.853Z,-0.10
2022-12-14T18:54:51.778Z,0.00
2022-12-14T18:57:21.005Z,0.00
2022-12-14T18:59:48.857Z,-0.10
2022-12-14T19:02:16.818Z,0.00
2022-12-14T19:04:49.010Z,-0.10
2022-12-14T19:07:16.920Z,-0.10
2022-12-14T19:09:44.904Z,-0.10
2022-12-14T19:12:12.829Z,-0.10
2022-12-14T19:14:42.313Z,-0.10
2022-12-14T19:17:10.167Z,-0.10
2022-12-14T19:19:42.642Z,-0.10
2022-12-14T19:22:12.325Z,-0.10
2022-12-14T19:24:40.285Z,-0.10
2022-12-14T19:27:08.148Z,-0.10
2022-12-14T19:29:36.865Z,-0.10
2022-12-14T19:32:06.374Z,-0.10
2022-12-14T19:34:34.307Z,-0.10
2022-12-14T19:37:02.134Z,-0.10
2022-12-14T19:39:29.991Z,-0.10
2022-12-14T19:41:57.883Z,-0.10
2022-12-14T19:44:25.770Z,-0.10
2022-12-14T19:46:53.792Z,-0.10
2022-12-14T19:49:23.116Z,-0.10
2022-12-14T19:51:51.019Z,-0.10
2022-12-14T19:54:19.293Z,-0.20
2022-12-14T19:56:47.147Z,-0.20
2022-12-14T19:59:17.412Z,-0.10
2022-12-14T20:01:48.230Z,-0.20
2022-12-14T20:04:16.672Z,-0.20
2022-12-14T20:06:46.092Z,-0.10
2022-12-14T20:09:16.540Z,-0.10
2022-12-14T20:11:45.154Z,-0.10
2022-12-14T20:14:14.108Z,-0.10
2022-12-14T20:16:42.242Z,-0.10
2022-12-14T20:19:12.028Z,0.00
2022-12-14T20:21:40.354Z,0.00
2022-12-14T20:24:11.112Z,-0.10
2022-12-14T20:26:39.493Z,0.00
2022-12-14T20:29:08.007Z,0.00
2022-12-14T20:31:37.012Z,0.00
2022-12-14T20:34:06.322Z,0.00
2022-12-14T20:36:34.363Z,0.00
2022-12-14T20:39:02.536Z,0.00
2022-12-14T20:41:32.648Z,-0.10
2022-12-14T20:44:02.038Z,-0.20
2022-12-14T20:46:32.466Z,-0.50
2022-12-14T20:49:02.176Z,-0.80
2022-12-14T20:51:31.545Z,-0.90
2022-12-14T20:54:00.107Z,-0.90
2022-12-14T20:56:28.556Z,-1.00
2022-12-14T20:58:58.159Z,-1.20
2022-12-14T21:01:26.192Z,-1.30
2022-12-14T21:03:54.339Z,-1.30
2022-12-14T21:06:23.984Z,-1.50
2022-12-14T21:09:06.301Z,-1.60
2022-12-14T21:11:54.004Z,-1.60
2022-12-14T21:14:24.670Z,-1.80
2022-12-14T21:16:53.007Z,-1.90
2022-12-14T21:19:21.449Z,-1.90
2022-12-14T21:21:53.490Z,-1.90
2022-12-14T21:27:16.401Z,-2.00
2022-12-14T21:29:45.808Z,-2.00
2022-12-14T21:32:14.572Z,-2.00
2022-12-14T21:34:43.364Z,-2.00
2022-12-14T21:37:12.124Z,-2.00
2022-12-14T21:39:40.007Z,-2.00
2022-12-14T21:42:10.408Z,-2.00
2022-12-14T21:44:40.126Z,-2.10
2022-12-14T21:47:12.705Z,-2.10
2022-12-14T21:49:41.976Z,-2.10
2022-12-14T21:52:10.702Z,-2.10
2022-12-14T21:54:38.612Z,-2.10
2022-12-14T21:57:23.761Z,-2.10
2022-12-14T21:59:51.643Z,-2.20
2022-12-14T22:02:23.195Z,-2.30
2022-12-14T22:04:56.199Z,-2.30
2022-12-14T22:07:26.336Z,-2.30
2022-12-14T22:09:54.194Z,-2.40
2022-12-14T22:12:22.022Z,-2.40
2022-12-14T22:14:50.369Z,-2.40
2022-12-14T22:17:19.702Z,-2.50
2022-12-14T22:19:48.869Z,-2.60
2022-12-14T22:22:18.004Z,-2.50
2022-12-14T22:24:48.612Z,-2.70
2022-12-14T22:27:16.507Z,-2.70
2022-12-14T22:29:44.355Z,-2.70
2022-12-14T22:32:13.264Z,-2.80
2022-12-14T22:34:42.575Z,-2.80
2022-12-14T22:37:10.433Z,-2.80
2022-12-14T22:39:38.298Z,-2.90
2022-12-14T22:42:06.520Z,-2.90
2022-12-14T22:44:34.356Z,-2.90
2022-12-14T22:47:02.158Z,-2.90
2022-12-14T22:49:29.992Z,-2.90
2022-12-14T22:51:59.156Z,-2.90
2022-12-14T22:54:29.909Z,-3.00
2022-12-14T22:56:59.500Z,-2.90
2022-12-14T22:59:32.954Z,-2.90
2022-12-14T23:02:00.923Z,-2.90
2022-12-14T23:04:29.131Z,-2.90
2022-12-14T23:06:57.048Z,-2.90
2022-12-14T23:09:43.497Z,-2.90
2022-12-14T23:12:28.999Z,-3.00
2022-12-14T23:15:14.487Z,-3.00
2022-12-14T23:17:59.981Z,-3.10
2022-12-14T23:20:45.421Z,-3.10
2022-12-14T23:23:31.186Z,-3.10
2022-12-14T23:26:22.266Z,-3.10
2022-12-14T23:29:08.054Z,-3.10
2022-12-14T23:31:53.507Z,-3.20
2022-12-14T23:34:39.175Z,-3.10
2022-12-14T23:37:24.736Z,-3.10
2022-12-14T23:40:10.292Z,-3.10
2022-12-14T23:42:56.948Z,-3.20
2022-12-14T23:45:42.468Z,-3.20
2022-12-14T23:48:27.929Z,-3.20
2022-12-14T23:51:13.487Z,-3.20
2022-12-14T23:53:58.910Z,-3.20
2022-12-14T23:56:44.521Z,-3.20
2022-12-14T23:59:32.752Z,-3.20
